Time;durP1;ratioP1;P1;durP2;ratioP2;P2;SDS_P1;SDS_P2;PMS_P1;PMS_P2;Temp;Humidity;BMP_temperature;BMP_pressure;BME280_temperature;BME280_humidity;BME280_pressure;Samples;Min_cycle;Max_cycle;Signal;HPM_P1;HPM_P2
2024/02/04 00:02:03;;;;;;;14.20;11.40;;;;;;;4.97;100.00;99605.75;108135;1253;60500;-82
2024/02/04 00:04:32;;;;;;;15.60;10.50;;;;;;;4.98;100.00;99601.88;108681;1252;73866;-84
2024/02/04 00:06:59;;;;;;;11.90;10.20;;;;;;;5.00;100.00;99605.93;109025;1253;62551;-83
2024/02/04 00:09:28;;;;;;;13.30;10.60;;;;;;;5.03;100.00;99605.48;106435;1253;72777;-82
2024/02/04 00:11:58;;;;;;;13.90;11.80;;;;;;;5.03;100.00;99607.34;106211;1252;62092;-82
2024/02/04 00:14:25;;;;;;;13.20;11.10;;;;;;;5.05;100.00;99607.42;106270;1253;60523;-83
2024/02/04 00:16:52;;;;;;;12.20;10.30;;;;;;;5.05;100.00;99612.94;105954;1253;73805;-81
2024/02/04 00:19:19;;;;;;;13.50;10.40;;;;;;;5.05;100.00;99610.89;106175;1257;63995;-82
2024/02/04 00:21:46;;;;;;;14.80;11.40;;;;;;;5.05;100.00;99608.27;106908;1253;72471;-80
2024/02/04 00:24:14;;;;;;;14.80;11.20;;;;;;;5.06;100.00;99613.42;106552;1257;61193;-83
2024/02/04 00:26:41;;;;;;;12.40;10.10;;;;;;;5.07;100.00;99610.60;105986;1253;60470;-82
2024/02/04 00:29:08;;;;;;;13.10;10.40;;;;;;;5.07;100.00;99614.23;106215;1253;73740;-81
2024/02/04 00:31:35;;;;;;;12.40;10.20;;;;;;;5.07;100.00;99615.42;106178;1256;62304;-79
2024/02/04 00:34:03;;;;;;;12.90;9.80;;;;;;;5.07;100.00;99614.74;106201;1254;72663;-83
2024/02/04 00:36:30;;;;;;;12.00;9.80;;;;;;;5.06;100.00;99614.77;106859;1254;61233;-82
2024/02/04 00:38:57;;;;;;;17.80;12.00;;;;;;;5.05;100.00;99618.34;106172;1254;60449;-84
2024/02/04 00:41:24;;;;;;;16.60;12.00;;;;;;;5.01;100.00;99617.66;106127;1257;73757;-85
2024/02/04 00:43:52;;;;;;;17.40;11.80;;;;;;;4.98;100.00;99616.75;106048;1258;63030;-82
2024/02/04 00:46:19;;;;;;;15.50;11.20;;;;;;;4.96;100.00;99616.36;106027;1254;72569;-83
2024/02/04 00:48:46;;;;;;;12.40;10.80;;;;;;;4.94;100.00;99610.58;106018;1258;60457;-85
2024/02/04 00:51:16;;;;;;;16.40;11.50;;;;;;;4.93;100.00;99604.23;106023;1258;60457;-84
2024/02/04 00:53:49;;;;;;;16.70;11.40;;;;;;;4.92;100.00;99606.85;105752;1256;72631;-83
2024/02/04 00:56:16;;;;;;;14.50;10.70;;;;;;;4.91;100.00;99606.41;106044;1254;62506;-83
2024/02/04 00:58:43;;;;;;;20.30;13.10;;;;;;;4.91;100.00;99602.58;105814;1254;72859;-84
2024/02/04 01:01:10;;;;;;;15.50;11.40;;;;;;;4.90;100.00;99603.84;105982;1257;60431;-83
2024/02/04 01:03:38;;;;;;;14.10;10.90;;;;;;;4.89;100.00;99604.09;105990;1257;60550;-83
2024/02/04 01:06:05;;;;;;;13.80;11.40;;;;;;;4.86;100.00;99605.09;106100;1256;73765;-84
2024/02/04 01:08:34;;;;;;;10.90;9.80;;;;;;;4.84;100.00;99607.48;106291;1258;63536;-83
2024/02/04 01:11:01;;;;;;;11.50;9.50;;;;;;;4.82;100.00;99602.72;107297;1256;72675;-83
2024/02/04 01:13:29;;;;;;;13.80;9.50;;;;;;;4.79;100.00;99603.73;106077;1258;61248;-85
2024/02/04 01:15:56;;;;;;;10.60;9.40;;;;;;;4.79;100.00;99605.83;105915;1254;60506;-84
2024/02/04 01:18:22;;;;;;;11.30;9.70;;;;;;;4.81;100.00;99608.34;105914;1254;73542;-84
2024/02/04 01:20:49;;;;;;;13.00;9.70;;;;;;;4.82;100.00;99603.44;105947;1254;62725;-82
2024/02/04 01:23:18;;;;;;;15.10;10.00;;;;;;;4.82;100.00;99599.77;106564;1254;73202;-81
2024/02/04 01:25:46;;;;;;;12.20;9.10;;;;;;;4.83;100.00;99587.81;106032;1254;60441;-82
2024/02/04 01:28:14;;;;;;;10.40;9.00;;;;;;;4.84;100.00;99591.35;106072;1256;60560;-85
2024/02/04 01:30:41;;;;;;;9.20;8.30;;;;;;;4.84;100.00;99594.13;105980;1257;73807;-85
2024/02/04 01:33:09;;;;;;;10.20;9.10;;;;;;;4.86;100.00;99598.21;105999;1255;63410;-83
2024/02/04 01:35:36;;;;;;;11.40;8.60;;;;;;;4.85;100.00;99601.73;106011;1254;72623;-82
2024/02/04 01:38:03;;;;;;;12.30;8.60;;;;;;;4.85;100.00;99603.80;105791;1255;61175;-82
2024/02/04 01:40:30;;;;;;;9.20;8.20;;;;;;;4.86;100.00;99602.84;105761;1254;60448;-82
2024/02/04 01:42:57;;;;;;;10.00;7.60;;;;;;;4.88;100.00;99603.29;105641;1254;73828;-83
2024/02/04 01:45:25;;;;;;;11.40;7.80;;;;;;;4.90;100.00;99600.94;105915;1258;63841;-82
2024/02/04 01:47:53;;;;;;;8.20;6.90;;;;;;;4.93;100.00;99599.02;105882;1258;72360;-83
2024/02/04 01:50:21;;;;;;;9.60;7.70;;;;;;;4.94;100.00;99608.30;105697;1261;60584;-81
2024/02/04 01:52:49;;;;;;;10.40;8.40;;;;;;;4.95;100.00;99612.77;105727;1254;60541;-81
2024/02/04 01:55:16;;;;;;;8.10;7.20;;;;;;;4.95;100.00;99612.27;105667;1260;72148;-82
2024/02/04 01:57:43;;;;;;;7.60;6.80;;;;;;;4.94;100.00;99613.52;105923;1254;63687;-85
2024/02/04 02:00:10;;;;;;;8.00;7.20;;;;;;;4.94;100.00;99614.20;105958;1254;72751;-80
2024/02/04 02:02:39;;;;;;;7.10;6.40;;;;;;;4.95;100.00;99618.30;105894;1258;61139;-82
2024/02/04 02:05:08;;;;;;;8.70;6.20;;;;;;;4.97;100.00;99620.80;105886;1254;60509;-82
2024/02/04 02:07:35;;;;;;;7.00;6.10;;;;;;;4.98;100.00;99620.42;105922;1255;73658;-81
2024/02/04 02:10:05;;;;;;;6.30;5.60;;;;;;;4.98;100.00;99625.92;105617;1258;64005;-82
2024/02/04 02:12:41;;;;;;;7.10;5.90;;;;;;;5.00;100.00;99625.85;105711;1254;71251;-81
2024/02/04 02:15:16;;;;;;;9.50;6.40;;;;;;;5.00;100.00;99627.07;105822;1256;61168;-85
2024/02/04 02:17:57;;;;;;;;;;;;;;;5.00;100.00;99624.12;105830;1254;60529;-81
2024/02/04 02:20:30;;;;;;;7.70;5.60;;;;;;;5.00;100.00;99624.46;105884;1254;73960;-80
2024/02/04 02:23:07;;;;;;;6.00;5.40;;;;;;;5.01;100.00;99625.80;106624;1254;63855;-79
2024/02/04 02:25:36;;;;;;;9.10;6.90;;;;;;;5.04;100.00;99623.09;106271;1257;72688;-82
2024/02/04 02:28:04;;;;;;;7.40;6.20;;;;;;;5.05;100.00;99625.75;105848;1255;60568;-81
2024/02/04 02:30:31;;;;;;;8.90;7.80;;;;;;;5.06;100.00;99621.38;105829;1255;60403;-85
2024/02/04 02:32:58;;;;;;;9.90;6.20;;;;;;;5.07;100.00;99622.89;105880;1254;72512;-82
2024/02/04 02:35:24;;;;;;;7.30;5.70;;;;;;;5.07;100.00;99625.46;105965;1257;63692;-83
2024/02/04 02:38:14;;;;;;;8.00;5.90;;;;;;;5.07;100.00;99623.06;105813;1254;72799;-85
2024/02/04 02:40:46;;;;;;;8.20;6.80;;;;;;;5.08;100.00;99625.59;105700;1260;60393;-84
2024/02/04 02:43:14;;;;;;;11.30;7.40;;;;;;;5.09;100.00;99629.01;106002;1258;60516;-81
2024/02/04 02:45:42;;;;;;;12.00;9.10;;;;;;;5.08;100.00;99625.27;106050;1261;73695;-84
2024/02/04 02:48:09;;;;;;;11.80;7.90;;;;;;;5.09;100.00;99624.84;106025;1258;64800;-84
2024/02/04 02:50:37;;;;;;;8.70;7.50;;;;;;;5.10;100.00;99630.54;105735;1254;71381;-84
2024/02/04 02:53:05;;;;;;;14.80;8.80;;;;;;;5.10;100.00;99628.63;105951;1254;60490;-83
2024/02/04 02:55:32;;;;;;;16.30;9.50;;;;;;;5.11;100.00;99631.34;106407;1255;60490;-81
2024/02/04 02:57:59;;;;;;;16.10;10.10;;;;;;;5.12;100.00;99629.17;108775;1254;71661;-83
2024/02/04 03:00:27;;;;;;;12.20;9.30;;;;;;;5.14;100.00;99631.02;107321;1253;64051;-83
2024/02/04 03:02:55;;;;;;;11.60;9.70;;;;;;;5.15;100.00;99627.80;105848;1254;72750;-83
2024/02/04 03:05:22;;;;;;;13.10;9.00;;;;;;;5.16;100.00;99628.46;105907;1254;60566;-82
2024/02/04 03:07:50;;;;;;;15.90;10.20;;;;;;;5.15;100.00;99624.52;105624;1255;295605;-83
2024/02/04 03:12:34;;;;;;;12.40;8.30;;;;;;;5.13;100.00;99631.05;102711;1294;605283;-83
2024/02/04 03:15:01;;;;;;;8.70;6.90;;;;;;;5.13;100.00;99639.05;105617;1259;60070;-82
2024/02/04 03:17:28;;;;;;;11.50;9.00;;;;;;;5.12;100.00;99646.66;106452;1259;60208;-83
2024/02/04 03:19:55;;;;;;;10.40;7.40;;;;;;;5.13;100.00;99651.83;105816;1260;70689;-83
2024/02/04 03:22:22;;;;;;;11.20;7.60;;;;;;;5.15;100.00;99650.48;105707;1260;62377;-81
2024/02/04 03:24:53;;;;;;;14.60;8.20;;;;;;;5.16;100.00;99643.91;105418;1263;179604;-84
2024/02/04 03:27:21;;;;;;;9.30;7.30;;;;;;;5.16;100.00;99635.20;105753;1255;59632;-84
2024/02/04 03:29:47;;;;;;;12.30;8.40;;;;;;;5.18;100.00;99631.16;105717;1256;60179;-84
2024/02/04 03:32:14;;;;;;;9.20;6.70;;;;;;;5.19;100.00;99638.88;105650;1256;70749;-85
2024/02/04 03:34:42;;;;;;;7.10;6.40;;;;;;;5.22;100.00;99634.77;105825;1257;63968;-83
2024/02/04 03:37:08;;;;;;;9.50;7.10;;;;;;;5.24;100.00;99635.86;105846;1257;72670;-82
2024/02/04 03:39:36;;;;;;;11.50;8.50;;;;;;;5.25;100.00;99635.78;107172;1256;59963;-83
2024/02/04 03:42:04;;;;;;;9.50;6.00;;;;;;;5.26;100.00;99637.12;105551;1262;59768;-85
2024/02/04 03:44:31;;;;;;;9.20;7.40;;;;;;;5.26;100.00;99633.29;105754;1256;71615;-84
2024/02/04 03:46:58;;;;;;;6.70;5.60;;;;;;;5.25;100.00;99631.27;105808;1260;63757;-83
2024/02/04 03:49:25;;;;;;;8.10;6.00;;;;;;;5.24;100.00;99630.81;105803;1259;71603;-84
2024/02/04 03:51:52;;;;;;;6.80;5.50;;;;;;;5.23;100.00;99634.36;106082;1255;61193;-83
2024/02/04 03:54:19;;;;;;;6.60;5.80;;;;;;;5.22;100.00;99634.02;106137;1262;59590;-84
2024/02/04 03:56:47;;;;;;;7.40;5.90;;;;;;;5.22;100.00;99632.17;105785;1256;70575;-83
2024/02/04 03:59:13;;;;;;;7.00;6.10;;;;;;;5.21;100.00;99633.42;106150;1255;63707;-84
2024/02/04 04:01:46;;;;;;;7.10;5.00;;;;;;;5.21;100.00;99633.41;106115;1253;71449;-84
2024/02/04 04:04:14;;;;;;;6.40;5.80;;;;;;;5.20;100.00;99634.83;106117;1251;59788;-84
2024/02/04 04:06:41;;;;;;;7.20;6.00;;;;;;;5.19;100.00;99635.95;106437;1255;59727;-82
2024/02/04 04:09:08;;;;;;;8.10;5.60;;;;;;;5.20;100.00;99636.56;106718;1253;73076;-83
2024/02/04 04:11:35;;;;;;;6.70;6.00;;;;;;;5.18;100.00;99638.74;106338;1253;63695;-84
2024/02/04 04:14:02;;;;;;;7.20;5.70;;;;;;;5.17;100.00;99640.38;106293;1255;71374;-85
2024/02/04 04:16:29;;;;;;;7.60;5.90;;;;;;;5.18;100.00;99642.77;106276;1251;61201;-82
2024/02/04 04:18:58;;;;;;;10.60;7.70;;;;;;;5.17;100.00;99642.79;107017;1254;60234;-79
2024/02/04 04:21:25;;;;;;;10.60;7.30;;;;;;;5.16;100.00;99637.31;108152;1253;73099;-81
2024/02/04 04:23:53;;;;;;;11.20;6.70;;;;;;;5.17;100.00;99636.73;106889;1253;61552;-83
2024/02/04 04:26:20;;;;;;;13.00;9.20;;;;;;;5.17;100.00;99637.09;106013;1255;72776;-82
2024/02/04 04:28:47;;;;;;;11.30;8.50;;;;;;;5.17;100.00;99650.05;106127;1255;61510;-84
2024/02/04 04:31:14;;;;;;;11.60;7.60;;;;;;;5.17;100.00;99652.86;105994;1256;59733;-84
2024/02/04 04:33:41;;;;;;;10.00;8.10;;;;;;;5.16;100.00;99655.17;105938;1252;72901;-84
2024/02/04 04:36:08;;;;;;;10.80;7.80;;;;;;;5.16;100.00;99646.13;106144;1255;63677;-84
2024/02/04 04:38:35;;;;;;;12.40;8.00;;;;;;;5.16;100.00;99648.20;106057;1256;71659;-83
2024/02/04 04:41:02;;;;;;;16.50;9.10;;;;;;;5.16;100.00;99646.11;106184;1255;60951;-82
2024/02/04 04:43:29;;;;;;;12.40;8.00;;;;;;;5.18;100.00;99648.95;106116;1255;59730;-83
2024/02/04 04:45:55;;;;;;;11.30;8.30;;;;;;;5.20;100.00;99647.67;106135;1254;71669;-83
2024/02/04 04:48:22;;;;;;;13.90;6.90;;;;;;;5.21;100.00;99651.95;106545;1253;63796;-83
2024/02/04 04:50:49;;;;;;;11.80;7.40;;;;;;;5.22;100.00;99653.80;106589;1256;72779;-83
2024/02/04 04:53:16;;;;;;;10.60;6.80;;;;;;;5.24;100.00;99650.92;106902;1256;59730;-84
2024/02/04 04:55:43;;;;;;;11.30;7.00;;;;;;;5.25;100.00;99653.14;106997;1252;59526;-83
2024/02/04 04:58:10;;;;;;;16.10;8.10;;;;;;;5.25;100.00;99651.39;106552;1255;71752;-84
2024/02/04 05:00:38;;;;;;;10.70;6.50;;;;;;;5.26;100.00;99652.56;106331;1253;63754;-86
2024/02/04 05:03:04;;;;;;;9.00;6.50;;;;;;;5.28;100.00;99661.81;106312;1255;72682;-84
2024/02/04 05:05:31;;;;;;;9.80;7.80;;;;;;;5.30;100.00;99662.04;106450;1253;61213;-84
2024/02/04 05:07:58;;;;;;;13.90;6.90;;;;;;;5.32;100.00;99664.17;106908;1255;59639;-84
2024/02/04 05:10:25;;;;;;;11.50;7.70;;;;;;;5.35;100.00;99665.05;106591;1256;71572;-84
2024/02/04 05:12:52;;;;;;;12.30;7.30;;;;;;;5.37;100.00;99664.94;106222;1253;65099;-83
2024/02/04 05:15:19;;;;;;;14.40;8.40;;;;;;;5.39;100.00;99666.36;106176;1255;71566;-84
2024/02/04 05:17:46;;;;;;;12.90;7.40;;;;;;;5.41;100.00;99667.33;105992;1254;61004;-83
2024/02/04 05:20:12;;;;;;;10.10;6.50;;;;;;;5.41;100.00;99672.88;106305;1255;59653;-81
2024/02/04 05:22:39;;;;;;;6.90;5.50;;;;;;;5.39;100.00;99670.19;105993;1254;71698;-82
2024/02/04 05:25:06;;;;;;;6.60;5.90;;;;;;;5.39;100.00;99670.05;106157;1252;62566;-82
2024/02/04 05:27:33;;;;;;;8.30;5.50;;;;;;;5.38;100.00;99671.98;106076;1257;71314;-86
2024/02/04 05:30:02;;;;;;;7.50;5.60;;;;;;;5.37;100.00;99670.96;105990;1256;61186;-84
2024/02/04 05:32:29;;;;;;;7.30;5.60;;;;;;;5.37;100.00;99671.01;106061;1253;60315;-82
2024/02/04 05:34:56;;;;;;;6.90;5.80;;;;;;;5.37;100.00;99675.52;106000;1251;72953;-85
2024/02/04 05:37:24;;;;;;;5.90;5.40;;;;;;;5.37;100.00;99678.82;106155;1251;63933;-81
2024/02/04 05:39:51;;;;;;;6.40;5.40;;;;;;;5.35;100.00;99682.02;106102;1251;71454;-82
2024/02/04 05:42:17;;;;;;;7.90;6.40;;;;;;;5.35;100.00;99682.70;105927;1258;61093;-83
2024/02/04 05:44:45;;;;;;;8.00;5.20;;;;;;;5.35;100.00;99680.99;106083;1255;59753;-81
2024/02/04 05:47:12;;;;;;;9.00;6.00;;;;;;;5.35;100.00;99682.55;106076;1253;72812;-84
2024/02/04 05:49:38;;;;;;;6.50;5.70;;;;;;;5.35;100.00;99686.88;106026;1255;63747;-84
2024/02/04 05:52:06;;;;;;;7.80;6.50;;;;;;;5.34;100.00;99687.09;106019;1253;71668;-82
2024/02/04 05:54:37;;;;;;;11.60;8.00;;;;;;;5.32;100.00;99687.23;105990;1251;60292;-84
2024/02/04 05:57:05;;;;;;;14.50;8.30;;;;;;;5.31;100.00;99685.36;105961;1256;59720;-84
2024/02/04 05:59:35;;;;;;;10.70;8.10;;;;;;;5.31;100.00;99689.86;105883;1253;72114;-83
2024/02/04 06:02:03;;;;;;;11.10;7.60;;;;;;;5.31;100.00;99691.23;106040;1251;62915;-82
2024/02/04 06:04:30;;;;;;;9.60;8.00;;;;;;;5.33;100.00;99689.06;106012;1251;72722;-83
2024/02/04 06:06:57;;;;;;;14.20;7.30;;;;;;;5.36;100.00;99692.73;105985;1251;59978;-84
2024/02/04 06:09:24;;;;;;;11.70;7.80;;;;;;;5.38;100.00;99697.12;106067;1255;59653;-84
2024/02/04 06:11:51;;;;;;;11.20;8.00;;;;;;;5.40;100.00;99692.34;106182;1251;71318;-81
2024/02/04 06:14:18;;;;;;;9.20;7.30;;;;;;;5.40;100.00;99692.67;107355;1253;63941;-83
2024/02/04 06:16:45;;;;;;;10.80;8.30;;;;;;;5.42;100.00;99689.66;106159;1255;71424;-84
2024/02/04 06:19:12;;;;;;;15.20;9.70;;;;;;;5.44;100.00;99687.65;106161;1255;60879;-83
2024/02/04 06:21:39;;;;;;;13.90;8.90;;;;;;;5.47;100.00;99687.84;106177;1254;60357;-84
2024/02/04 06:24:06;;;;;;;15.30;9.50;;;;;;;5.51;100.00;99682.92;106032;1253;72087;-83
2024/02/04 06:26:38;;;;;;;15.00;9.10;;;;;;;5.55;100.00;99680.43;106170;1255;63983;-81
2024/02/04 06:29:05;;;;;;;16.30;10.00;;;;;;;5.59;100.00;99682.33;106002;1252;72631;-86
2024/02/04 06:31:32;;;;;;;12.10;9.00;;;;;;;5.63;100.00;99682.09;106128;1253;60312;-86
2024/02/04 06:33:59;;;;;;;16.00;9.10;;;;;;;5.68;100.00;99676.45;106348;1253;60292;-85
2024/02/04 06:36:25;;;;;;;16.70;9.70;;;;;;;5.71;100.00;99679.05;106577;1258;73118;-87
2024/02/04 06:38:53;;;;;;;11.20;8.00;;;;;;;5.72;100.00;99673.46;106220;1255;63919;-84
2024/02/04 06:41:20;;;;;;;13.90;8.20;;;;;;;5.73;100.00;99675.80;106311;1255;72717;-83
2024/02/04 06:43:48;;;;;;;13.40;7.40;;;;;;;5.76;100.00;99671.63;106078;1254;60275;-83
2024/02/04 06:46:24;;;;;;;12.80;6.70;;;;;;;5.83;100.00;99675.98;106153;1254;60380;-85
2024/02/04 06:48:51;;;;;;;10.60;6.80;;;;;;;5.89;100.00;99676.12;106377;1251;71975;-84
2024/02/04 06:51:19;;;;;;;10.10;6.60;;;;;;;5.96;100.00;99675.61;106797;1256;63279;-85
2024/02/04 06:53:46;;;;;;;9.40;6.50;;;;;;;6.05;100.00;99680.00;106324;1256;72688;-86
2024/02/04 06:56:13;;;;;;;12.70;7.00;;;;;;;6.11;100.00;99680.82;106353;1255;61146;-85
2024/02/04 06:58:41;;;;;;;10.80;6.20;;;;;;;6.17;100.00;99682.73;106460;1252;60381;-85
2024/02/04 07:01:08;;;;;;;10.10;7.70;;;;;;;6.24;100.00;99688.80;106317;1257;73100;-83
2024/02/04 07:03:35;;;;;;;11.10;7.50;;;;;;;6.30;100.00;99687.25;106622;1251;63928;-82
2024/02/04 07:06:04;;;;;;;12.60;8.10;;;;;;;6.36;100.00;99684.77;106148;1259;73441;-83
2024/02/04 07:08:32;;;;;;;12.70;8.70;;;;;;;6.39;100.00;99686.50;106211;1255;61246;-84
2024/02/04 07:10:58;;;;;;;14.20;8.80;;;;;;;6.43;100.00;99691.31;106076;1256;60369;-83
2024/02/04 07:13:27;;;;;;;13.80;7.90;;;;;;;6.48;100.00;99695.95;106152;1251;73048;-84
2024/02/04 07:15:55;;;;;;;14.00;8.40;;;;;;;6.51;100.00;99694.02;106291;1251;62466;-82
2024/02/04 07:18:22;;;;;;;11.20;7.40;;;;;;;6.54;100.00;99696.44;106456;1253;72739;-83
2024/02/04 07:20:50;;;;;;;14.40;8.50;;;;;;;6.57;100.00;99696.83;106340;1255;60357;-81
2024/02/04 07:23:17;;;;;;;15.40;7.90;;;;;;;6.57;100.00;99700.58;106104;1257;60443;-82
2024/02/04 07:25:44;;;;;;;13.20;8.40;;;;;;;6.57;100.00;99696.42;106273;1257;72585;-83
2024/02/04 07:28:11;;;;;;;11.80;6.60;;;;;;;6.59;100.00;99698.73;106827;1251;63695;-85
2024/02/04 07:30:38;;;;;;;10.60;6.10;;;;;;;6.62;100.00;99698.74;107588;1251;72916;-82
2024/02/04 07:33:05;;;;;;;12.70;6.50;;;;;;;6.65;100.00;99703.27;107777;1251;60556;-81
2024/02/04 07:35:32;;;;;;;11.30;7.00;;;;;;;6.66;100.00;99704.96;107032;1255;60441;-83
2024/02/04 07:38:01;;;;;;;10.80;6.30;;;;;;;6.66;100.00;99705.33;106607;1255;73750;-86
2024/02/04 07:40:28;;;;;;;9.20;6.70;;;;;;;6.68;100.00;99704.48;106853;1256;63648;-85
2024/02/04 07:42:55;;;;;;;16.20;9.20;;;;;;;6.69;100.00;99705.27;107818;1251;71452;-84
2024/02/04 07:45:21;;;;;;;17.10;8.00;;;;;;;6.71;100.00;99709.19;107597;1256;61053;-83
2024/02/04 07:47:48;;;;;;;14.50;8.60;;;;;;;6.71;100.00;99710.02;106644;1251;60489;-83
2024/02/04 07:50:16;;;;;;;11.30;7.00;;;;;;;6.73;100.00;99709.43;106258;1255;74058;-85
2024/02/04 07:52:45;;;;;;;11.50;6.70;;;;;;;6.73;100.00;99716.53;107458;1255;63629;-84
2024/02/04 07:55:12;;;;;;;13.00;7.40;;;;;;;6.72;100.00;99720.59;106303;1251;71243;-84
2024/02/04 07:57:40;;;;;;;12.10;6.10;;;;;;;6.72;100.00;99719.89;106816;1257;61196;-82
2024/02/04 08:00:10;;;;;;;12.80;6.70;;;;;;;6.72;100.00;99719.03;106914;1256;60556;-83
2024/02/04 08:02:40;;;;;;;11.70;5.60;;;;;;;6.71;100.00;99718.04;106793;1257;73817;-83
2024/02/04 08:05:07;;;;;;;12.60;7.40;;;;;;;6.71;100.00;99719.75;106774;1253;62696;-82
2024/02/04 08:07:36;;;;;;;8.30;5.60;;;;;;;6.71;100.00;99719.05;106793;1256;72649;-83
2024/02/04 08:10:04;;;;;;;10.70;5.60;;;;;;;6.73;100.00;99722.41;106493;1256;61230;-84
2024/02/04 08:12:31;;;;;;;7.60;5.20;;;;;;;6.74;100.00;99726.89;107307;1255;60435;-84
2024/02/04 08:14:58;;;;;;;14.10;6.10;;;;;;;6.74;100.00;99727.04;107119;1251;73982;-82
2024/02/04 08:17:26;;;;;;;11.50;5.80;;;;;;;6.75;100.00;99728.39;106874;1255;63886;-82
2024/02/04 08:19:53;;;;;;;11.30;6.60;;;;;;;6.76;100.00;99731.82;106357;1255;70916;-84
2024/02/04 08:22:20;;;;;;;10.70;6.20;;;;;;;6.77;100.00;99739.06;106445;1256;60985;-82
2024/02/04 08:24:50;;;;;;;11.90;7.10;;;;;;;6.78;100.00;99742.80;106776;1256;60454;-82
2024/02/04 08:27:18;;;;;;;14.40;6.40;;;;;;;6.79;100.00;99741.85;106608;1257;73923;-83
2024/02/04 08:29:46;;;;;;;9.50;6.40;;;;;;;6.81;100.00;99743.67;106788;1257;63879;-84
2024/02/04 08:32:13;;;;;;;11.60;6.70;;;;;;;6.83;100.00;99744.23;106843;1255;71321;-84
2024/02/04 08:34:40;;;;;;;14.60;8.40;;;;;;;6.88;100.00;99742.76;106664;1255;60347;-84
2024/02/04 08:37:08;;;;;;;20.60;12.80;;;;;;;6.93;100.00;99746.29;107906;1251;60423;-79
2024/02/04 08:39:35;;;;;;;14.70;8.30;;;;;;;6.99;100.00;99747.45;108241;1255;73953;-83
2024/02/04 08:42:02;;;;;;;11.00;7.20;;;;;;;7.11;100.00;99744.89;106641;1257;61888;-84
2024/02/04 08:44:30;;;;;;;16.70;7.90;;;;;;;7.22;100.00;99744.19;106352;1251;72624;-82
2024/02/04 08:47:09;;;;;;;11.90;5.80;;;;;;;7.31;100.00;99746.29;106777;1256;60357;-82
2024/02/04 08:49:39;;;;;;;10.80;5.00;;;;;;;7.36;100.00;99747.55;107274;1251;60451;-83
2024/02/04 08:52:07;;;;;;;6.10;3.70;;;;;;;7.40;100.00;99745.36;106243;1255;73686;-85
2024/02/04 08:54:37;;;;;;;5.70;3.30;;;;;;;7.49;100.00;99740.30;106297;1257;62653;-82
2024/02/04 08:57:04;;;;;;;6.40;3.30;;;;;;;7.58;100.00;99730.73;106168;1257;72521;-83
2024/02/04 08:59:31;;;;;;;6.70;3.30;;;;;;;7.64;100.00;99727.55;106196;1255;61559;-84
2024/02/04 09:01:58;;;;;;;5.80;3.70;;;;;;;7.76;100.00;99725.45;106171;1254;60452;-83
2024/02/04 09:04:25;;;;;;;5.40;3.90;;;;;;;7.90;100.00;99709.20;106216;1256;73673;-82
2024/02/04 09:06:52;;;;;;;10.10;5.60;;;;;;;8.07;100.00;99703.77;106457;1255;63732;-84
2024/02/04 09:09:19;;;;;;;7.40;5.10;;;;;;;8.20;100.00;99699.98;106146;1257;72811;-85
2024/02/04 09:11:47;;;;;;;12.50;6.30;;;;;;;8.28;100.00;99700.64;106295;1251;61254;-84
2024/02/04 09:14:14;;;;;;;9.30;5.70;;;;;;;8.32;100.00;99690.67;106170;1251;60434;-85
2024/02/04 09:16:41;;;;;;;11.60;7.50;;;;;;;8.27;100.00;99683.69;106177;1256;72411;-82
2024/02/04 09:19:08;;;;;;;16.40;8.70;;;;;;;8.20;100.00;99690.61;106088;1252;62344;-85
2024/02/04 09:21:36;;;;;;;13.50;9.10;;;;;;;8.13;100.00;99691.05;106348;1255;72427;-85
2024/02/04 09:24:02;;;;;;;15.40;9.80;;;;;;;8.09;100.00;99691.43;106206;1251;61891;-84
2024/02/04 09:26:30;;;;;;;15.90;10.80;;;;;;;8.09;100.00;99689.55;106264;1251;60441;-82
2024/02/04 09:28:57;;;;;;;11.50;7.80;;;;;;;8.06;100.00;99687.10;106186;1253;73811;-85
2024/02/04 09:31:24;;;;;;;13.90;8.30;;;;;;;8.04;100.00;99689.34;106201;1256;63841;-85
2024/02/04 09:33:51;;;;;;;16.40;9.10;;;;;;;8.03;100.00;99686.80;106153;1251;71041;-82
2024/02/04 09:36:18;;;;;;;16.60;11.00;;;;;;;8.02;100.00;99686.50;106049;1255;60928;-79
2024/02/04 09:38:45;;;;;;;14.80;9.30;;;;;;;8.02;100.00;99686.00;106094;1251;60428;-83
2024/02/04 09:41:14;;;;;;;18.70;10.10;;;;;;;8.05;100.00;99681.79;105860;1251;72695;-84
2024/02/04 09:43:41;;;;;;;16.80;10.10;;;;;;;8.32;100.00;99686.67;106166;1254;63760;-83
2024/02/04 09:46:09;;;;;;;18.70;9.70;;;;;;;8.77;100.00;99678.47;106377;1257;72767;-80
2024/02/04 09:48:36;;;;;;;11.80;8.20;;;;;;;9.15;100.00;99676.23;106516;1251;60998;-81
2024/02/04 09:51:04;;;;;;;18.70;7.90;;;;;;;9.41;100.00;99670.23;106314;1257;60354;-79
2024/02/04 09:53:34;;;;;;;11.30;7.40;;;;;;;9.80;100.00;99668.20;106247;1258;73634;-81
2024/02/04 09:56:06;;;;;;;13.40;6.40;;;;;;;10.36;100.00;99670.00;106774;1251;61761;-81
2024/02/04 09:58:33;;;;;;;12.60;6.90;;;;;;;10.91;100.00;99669.53;106733;1252;71384;-80
2024/02/04 10:01:02;;;;;;;11.00;6.80;;;;;;;11.22;100.00;99672.77;106621;1257;60479;-82
2024/02/04 10:03:30;;;;;;;9.80;6.70;;;;;;;11.39;100.00;99678.42;106615;1251;60350;-81
2024/02/04 10:05:57;;;;;;;10.20;6.20;;;;;;;11.30;100.00;99676.70;107766;1251;73760;-78
2024/02/04 10:08:24;;;;;;;10.00;5.20;;;;;;;11.09;100.00;99668.69;106382;1251;65206;-82
2024/02/04 10:10:51;;;;;;;8.70;4.90;;;;;;;10.86;100.00;99670.52;106645;1251;71474;-82
2024/02/04 10:13:18;;;;;;;8.80;5.80;;;;;;;10.56;100.00;99666.25;106165;1257;60546;-82
2024/02/04 10:15:46;;;;;;;10.70;5.80;;;;;;;10.35;100.00;99664.66;106208;1251;60901;-83
2024/02/04 10:18:13;;;;;;;10.90;6.20;;;;;;;10.25;100.00;99665.27;105911;1257;73889;-79
2024/02/04 10:20:42;;;;;;;15.30;9.60;;;;;;;10.15;100.00;99668.25;105859;1256;62450;-82
2024/02/04 10:23:09;;;;;;;7.10;3.90;;;;;;;10.04;100.00;99669.54;105841;1251;72316;-84
2024/02/04 10:25:36;;;;;;;7.20;5.30;;;;;;;9.97;100.00;99663.27;105810;1256;60507;-81
2024/02/04 10:28:03;;;;;;;7.50;4.20;;;;;;;9.88;100.00;99662.38;105778;1251;60565;-82
2024/02/04 10:30:32;;;;;;;5.00;2.80;;;;;;;9.83;100.00;99664.84;106025;1251;73791;-84
2024/02/04 10:32:59;;;;;;;7.00;3.10;;;;;;;9.80;100.00;99660.52;106021;1251;63885;-82
2024/02/04 10:35:26;;;;;;;5.20;3.80;;;;;;;9.76;100.00;99660.57;105964;1255;72704;-81
2024/02/04 10:37:54;;;;;;;10.40;4.80;;;;;;;9.72;100.00;99663.99;106082;1255;60438;-81
2024/02/04 10:40:20;;;;;;;17.80;9.50;;;;;;;9.69;100.00;99654.45;105819;1255;60469;-81
2024/02/04 10:42:48;;;;;;;13.50;8.00;;;;;;;9.68;100.00;99652.98;105933;1256;73879;-83
2024/02/04 10:45:18;;;;;;;11.80;8.00;;;;;;;9.65;100.00;99651.08;105890;1257;64795;-83
2024/02/04 10:47:57;;;;;;;16.60;9.90;;;;;;;9.58;100.00;99647.73;105762;1256;70570;-80
2024/02/04 10:50:26;;;;;;;30.60;23.00;;;;;;;9.53;100.00;99641.97;105915;1251;60558;-81
2024/02/04 10:52:53;;;;;;;25.70;12.90;;;;;;;9.56;100.00;99640.05;105911;1256;60630;-80
2024/02/04 10:55:22;;;;;;;23.70;14.10;;;;;;;9.61;100.00;99642.84;105861;1256;73637;-81
2024/02/04 10:57:48;;;;;;;27.30;15.40;;;;;;;9.63;100.00;99641.15;105907;1257;63926;-82
2024/02/04 11:00:16;;;;;;;20.90;13.80;;;;;;;9.60;100.00;99635.77;105892;1252;72599;-81
2024/02/04 11:02:45;;;;;;;18.90;10.20;;;;;;;9.61;100.00;99624.80;105815;1257;60585;-82
2024/02/04 11:05:13;;;;;;;24.20;10.10;;;;;;;9.66;100.00;99618.59;105906;1251;60783;-83
2024/02/04 11:07:39;;;;;;;17.20;8.10;;;;;;;9.72;100.00;99617.75;105473;1260;72260;-79
2024/02/04 11:10:07;;;;;;;15.80;7.00;;;;;;;9.80;100.00;99619.31;105988;1258;62174;-81
2024/02/04 11:12:34;;;;;;;26.80;12.60;;;;;;;9.86;100.00;99614.84;105943;1252;72705;-81
2024/02/04 11:15:04;;;;;;;27.00;8.50;;;;;;;9.93;100.00;99618.00;106041;1256;60557;-80
2024/02/04 11:18:03;;;;;;;14.70;6.60;;;;;;;9.95;100.00;99616.75;105795;1251;60519;-81
2024/02/04 11:20:52;;;;;;;15.30;7.00;;;;;;;9.86;100.00;99614.84;105936;1257;73680;-83
2024/02/04 11:23:36;;;;;;;23.00;10.90;;;;;;;9.78;100.00;99608.95;106659;1251;62501;-78
2024/02/04 11:26:04;;;;;;;15.60;6.70;;;;;;;9.72;100.00;99607.31;106269;1251;72658;-83